CSCL Long Beach — VRCZ7 — position and weather

sailwx.info

Track history (hours):
 
Tides and Currents Weather Stations Pressure Air Temp Water Temp Dewpoint Dewpoint Depression Visibility Wind Speed Wind Dir Waves Ship Positions

CSCL Long Beach

Last reported at 2015-Jul-28 14:33 UTC. Time now 2015-Aug-03 15:01 UTC.
Position N 03°05' E 100°44'.

Length 336.7 m; beam 45.6 m; draft 15 m.

Type: Cargo ship. MMSI: 477883900.

Date/timePositionNaut miles runAvg speedWind from/ knotsBaromVisibWave heightAir tempDewpointWater temp
2015-Jul-28 14:33N 03°05' E 100°44'3015.2
2015-Jul-28 12:33N 02°46' E 101°08'13 6.1
2015-Jul-28 10:29N 02°55' E 101°17'0 0.0
2015-Jul-28 08:33N 02°55' E 101°17'0 0.0
2015-Jul-28 07:30N 02°55' E 101°17'0 0.0
2015-Jul-28 05:32N 02°55' E 101°17'0 0.0
2015-Jul-28 03:32N 02°55' E 101°17'0 0.0
2015-Jul-28 01:32N 02°55' E 101°17'0 0.0
2015-Jul-27 23:32N 02°55' E 101°17'0 0.0
2015-Jul-27 21:32N 02°55' E 101°17'5 2.7
2015-Jul-27 19:33N 02°50' E 101°15'4410.9
2015-Jul-27 15:33N 02°21' E 101°48'13314.1
2015-Jul-27 06:10N 01°11' E 103°40'610.3
2015-Jul-27 05:33N 01°10' E 103°47'1614.4
2015-Jul-27 04:28N 01°15' E 104°01'  
2015-Jul-23 19:16N 22°01' E 114°22'910.5
2015-Jul-23 18:23N 22°08' E 114°16'1210.6
2015-Jul-23 17:14N 22°16' E 114°06'1210.0
2015-Jul-23 16:05N 22°21' E 113°55'5 9.7
2015-Jul-23 15:33N 22°26' E 113°53'1 0.7
2015-Jul-23 14:29N 22°27' E 113°53'0 0.0
2015-Jul-23 13:29N 22°27' E 113°53'0 0.0
2015-Jul-23 12:29N 22°27' E 113°53'0 0.0
2015-Jul-23 11:29N 22°27' E 113°53'0 0.0
2015-Jul-23 10:29N 22°27' E 113°53'0 0.0
2015-Jul-23 09:29N 22°27' E 113°53'0 0.0
2015-Jul-23 08:32N 22°27' E 113°53'0 0.0
2015-Jul-23 07:29N 22°27' E 113°53'0 0.0
2015-Jul-23 06:32N 22°27' E 113°53'0 0.0
2015-Jul-23 05:32N 22°27' E 113°53'0 0.0
2015-Jul-23 04:32N 22°27' E 113°53'0 0.0
2015-Jul-23 03:29N 22°27' E 113°53'0 0.0
2015-Jul-23 02:33N 22°27' E 113°53'3 2.8
2015-Jul-23 01:33N 22°24' E 113°54'9 8.6
2015-Jul-23 00:33N 22°21' E 114°02'1110.9
2015-Jul-22 23:33N 22°13' E 114°10'8 7.2
2015-Jul-22 22:28N 22°09' E 114°17'7 8.1
2015-Jul-22 21:33N 22°09' E 114°25'9 9.5
2015-Jul-22 20:33N 22°10' E 114°35'13812.6
2015-Jul-22 09:32N 22°56' E 116°57'1312.8
2015-Jul-22 08:32N 23°03' E 117°08'5513.7
2015-Jul-22 04:33N 23°33' E 117°58'2914.7
2015-Jul-22 02:33N 23°52' E 118°23'1514.9
2015-Jul-22 01:31N 24°01' E 118°36'1515.4
2015-Jul-22 00:33N 24°12' E 118°47'1515.2
2015-Jul-21 23:33N 24°21' E 119°01'6315.2
2015-Jul-21 19:24N 25°01' E 119°54'29514.1
2015-Jul-20 22:30N 29°21' E 122°31'1514.4
2015-Jul-20 21:29N 29°35' E 122°30'1414.8
2015-Jul-20 20:33N 29°45' E 122°19'1312.6
2015-Jul-20 19:33N 29°54' E 122°10'1312.9
2015-Jul-20 18:33N 29°56' E 121°55'0 0.4
2015-Jul-20 17:31N 29°56' E 121°56'0 0.0
2015-Jul-20 15:25N 29°56' E 121°56'0 0.0
2015-Jul-20 12:31N 29°56' E 121°56'0 0.0
2015-Jul-20 09:25N 29°56' E 121°56'0 0.0
2015-Jul-20 07:19N 29°56' E 121°56'0 0.0
2015-Jul-20 02:07N 29°56' E 121°56'0 0.0
2015-Jul-20 01:07N 29°56' E 121°56'0 0.0
2015-Jul-20 00:33N 29°56' E 121°56'7 7.0
2015-Jul-19 23:33N 29°56' E 122°04'1211.9
2015-Jul-19 22:33N 29°48' E 122°15'1211.6
2015-Jul-19 21:33N 29°43' E 122°27'1211.6
2015-Jul-19 20:33N 29°44' E 122°40'1816.9
2015-Jul-19 19:29N 29°55' E 122°56'1715.7
2015-Jul-19 18:24N 30°11' E 123°04'1515.7
2015-Jul-19 17:27N 30°23' E 122°53'1415.3
2015-Jul-19 16:33N 30°29' E 122°39'1514.6
2015-Jul-19 15:33N 30°32' E 122°22'1212.2
2015-Jul-19 14:33N 30°34' E 122°09'2 0.1
2015-Jul-19 00:33N 30°35' E 122°07'1211.9
2015-Jul-18 23:33N 30°33' E 122°21'7 7.0
2015-Jul-18 22:33N 30°32' E 122°29'8 8.0
2015-Jul-18 21:33N 30°30' E 122°38'  
Track history (hours):
 
Tides and Currents Weather Stations Pressure Air Temp Water Temp Dewpoint Dewpoint Depression Visibility Wind Speed Wind Dir Waves Ship Positions

CSCL Long Beach

Last reported at 2015-Jul-28 14:33 UTC. Time now 2015-Aug-03 15:01 UTC.
Position N 03°05' E 100°44'.

Length 336.7 m; beam 45.6 m; draft 15 m.

Type: Cargo ship. MMSI: 477883900.

Date/timePositionNaut miles runAvg speedWind from/ knotsBaromVisibWave heightAir tempDewpointWater temp
2015-Jul-28 14:33N 03°05' E 100°44'3015.2
2015-Jul-28 12:33N 02°46' E 101°08'13 6.1
2015-Jul-28 10:29N 02°55' E 101°17'0 0.0
2015-Jul-28 08:33N 02°55' E 101°17'0 0.0
2015-Jul-28 07:30N 02°55' E 101°17'0 0.0
2015-Jul-28 05:32N 02°55' E 101°17'0 0.0
2015-Jul-28 03:32N 02°55' E 101°17'0 0.0
2015-Jul-28 01:32N 02°55' E 101°17'0 0.0
2015-Jul-27 23:32N 02°55' E 101°17'0 0.0
2015-Jul-27 21:32N 02°55' E 101°17'5 2.7
2015-Jul-27 19:33N 02°50' E 101°15'4410.9
2015-Jul-27 15:33N 02°21' E 101°48'13314.1
2015-Jul-27 06:10N 01°11' E 103°40'610.3
2015-Jul-27 05:33N 01°10' E 103°47'1614.4
2015-Jul-27 04:28N 01°15' E 104°01'  
2015-Jul-23 19:16N 22°01' E 114°22'910.5
2015-Jul-23 18:23N 22°08' E 114°16'1210.6
2015-Jul-23 17:14N 22°16' E 114°06'1210.0
2015-Jul-23 16:05N 22°21' E 113°55'5 9.7
2015-Jul-23 15:33N 22°26' E 113°53'1 0.7
2015-Jul-23 14:29N 22°27' E 113°53'0 0.0
2015-Jul-23 13:29N 22°27' E 113°53'0 0.0
2015-Jul-23 12:29N 22°27' E 113°53'0 0.0
2015-Jul-23 11:29N 22°27' E 113°53'0 0.0
2015-Jul-23 10:29N 22°27' E 113°53'0 0.0
2015-Jul-23 09:29N 22°27' E 113°53'0 0.0
2015-Jul-23 08:32N 22°27' E 113°53'0 0.0
2015-Jul-23 07:29N 22°27' E 113°53'0 0.0
2015-Jul-23 06:32N 22°27' E 113°53'0 0.0
2015-Jul-23 05:32N 22°27' E 113°53'0 0.0
2015-Jul-23 04:32N 22°27' E 113°53'0 0.0
2015-Jul-23 03:29N 22°27' E 113°53'0 0.0
2015-Jul-23 02:33N 22°27' E 113°53'3 2.8
2015-Jul-23 01:33N 22°24' E 113°54'9 8.6
2015-Jul-23 00:33N 22°21' E 114°02'1110.9
2015-Jul-22 23:33N 22°13' E 114°10'8 7.2
2015-Jul-22 22:28N 22°09' E 114°17'7 8.1
2015-Jul-22 21:33N 22°09' E 114°25'9 9.5
2015-Jul-22 20:33N 22°10' E 114°35'13812.6
2015-Jul-22 09:32N 22°56' E 116°57'1312.8
2015-Jul-22 08:32N 23°03' E 117°08'5513.7
2015-Jul-22 04:33N 23°33' E 117°58'2914.7
2015-Jul-22 02:33N 23°52' E 118°23'1514.9
2015-Jul-22 01:31N 24°01' E 118°36'1515.4
2015-Jul-22 00:33N 24°12' E 118°47'1515.2
2015-Jul-21 23:33N 24°21' E 119°01'6315.2
2015-Jul-21 19:24N 25°01' E 119°54'29514.1
2015-Jul-20 22:30N 29°21' E 122°31'1514.4
2015-Jul-20 21:29N 29°35' E 122°30'1414.8
2015-Jul-20 20:33N 29°45' E 122°19'1312.6
2015-Jul-20 19:33N 29°54' E 122°10'1312.9
2015-Jul-20 18:33N 29°56' E 121°55'0 0.4
2015-Jul-20 17:31N 29°56' E 121°56'0 0.0
2015-Jul-20 15:25N 29°56' E 121°56'0 0.0
2015-Jul-20 12:31N 29°56' E 121°56'0 0.0
2015-Jul-20 09:25N 29°56' E 121°56'0 0.0
2015-Jul-20 07:19N 29°56' E 121°56'0 0.0
2015-Jul-20 02:07N 29°56' E 121°56'0 0.0
2015-Jul-20 01:07N 29°56' E 121°56'0 0.0
2015-Jul-20 00:33N 29°56' E 121°56'7 7.0
2015-Jul-19 23:33N 29°56' E 122°04'1211.9
2015-Jul-19 22:33N 29°48' E 122°15'1211.6
2015-Jul-19 21:33N 29°43' E 122°27'1211.6
2015-Jul-19 20:33N 29°44' E 122°40'1816.9
2015-Jul-19 19:29N 29°55' E 122°56'1715.7
2015-Jul-19 18:24N 30°11' E 123°04'1515.7
2015-Jul-19 17:27N 30°23' E 122°53'1415.3
2015-Jul-19 16:33N 30°29' E 122°39'1514.6
2015-Jul-19 15:33N 30°32' E 122°22'1212.2
2015-Jul-19 14:33N 30°34' E 122°09'2 0.1
2015-Jul-19 00:33N 30°35' E 122°07'1211.9
2015-Jul-18 23:33N 30°33' E 122°21'7 7.0
2015-Jul-18 22:33N 30°32' E 122°29'8 8.0
2015-Jul-18 21:33N 30°30' E 122°38'  

Dump ship's entire track history